Martin State Airport Baltimore US
ICAO: KMTN
IATA: MTN
Category: Medium
Scheduled Services: No

Elevation: 21 ft
TransAlt. 18000 ft.

Airport Communications:
POTOMAC APP/DEP:119
ATIS:124.925
AWOS 3:124.925
POTOMAC CLNC DEL:121.8
CTAF:121.3
GND:121.8
135 AG COMD POST:38.59
175 FG COMD POST:34.72
TWR:121.3
UNICOM:122.95

KMTN Zoom In..

Runways:

(A) RW 15 length 6997 ft width 180 ft
LOC 110.70 / hdg 146

(B) RW 33 length 6997 ft width 180 ft
LOC 110.70 / hdg 326

Location; KMTN
Day. 22 / Time. 00.45 Zulu
* Altimeter: 30.38
* Temperature: 11° c. 51.8°f.
* Wind from: 000° Speed 00 kn.
Dewpoint: 03° c.
Visibility: 10 Statute Miles.
Clouds: Few 11000 ft.
Clouds: Few 15000 ft.
Clouds: Broken 25000 ft.

KMTN 220045Z 00000KT 10SM FEW110 FEW150 BKN250 11/03 A3038


Wind - Calm.

  YouTube Music Video
 
jpsmedia.com for Web Design  worldairports.se 2018   terms of use